sensor_id;sensor_type;location;lat;lon;timestamp;pressure;altitude;pressure_sealevel;temperature;humidity
49040;BME280;36811;49.732;13.402;2022-09-13T18:52:42;97169.06;;;18.56;69.85
49040;BME280;36811;49.732;13.402;2022-09-13T18:55:08;97163.84;;;18.51;70.00
49040;BME280;36811;49.732;13.402;2022-09-13T18:57:33;97172.22;;;18.50;70.27
49040;BME280;36811;49.732;13.402;2022-09-13T18:59:59;97173.81;;;18.51;70.36
49040;BME280;36811;49.732;13.402;2022-09-13T19:02:25;97169.53;;;18.50;70.53
49040;BME280;36811;49.732;13.402;2022-09-13T19:04:51;97168.28;;;18.47;70.78
49040;BME280;36811;49.732;13.402;2022-09-13T19:07:16;97163.53;;;18.44;71.10
49040;BME280;36811;49.732;13.402;2022-09-13T19:09:42;97167.66;;;18.42;71.13
49040;BME280;36811;49.732;13.402;2022-09-13T19:12:08;97189.19;;;18.42;71.30
49040;BME280;36811;49.732;13.402;2022-09-13T19:14:33;97182.53;;;18.39;71.21
49040;BME280;36811;49.732;13.402;2022-09-13T19:16:59;97172.41;;;18.36;71.69
49040;BME280;36811;49.732;13.402;2022-09-13T19:19:25;97173.03;;;18.33;71.61
49040;BME280;36811;49.732;13.402;2022-09-13T19:21:51;97162.63;;;18.23;71.66
49040;BME280;36811;49.732;13.402;2022-09-13T19:24:16;97176.22;;;18.18;71.79
49040;BME280;36811;49.732;13.402;2022-09-13T19:26:43;97171.19;;;17.99;73.23
49040;BME280;36811;49.732;13.402;2022-09-13T19:29:11;97163.72;;;17.96;73.30
49040;BME280;36811;49.732;13.402;2022-09-13T19:31:40;97163.59;;;17.93;73.65
49040;BME280;36811;49.732;13.402;2022-09-13T19:34:06;97171.81;;;17.88;74.11
49040;BME280;36811;49.732;13.402;2022-09-13T19:36:37;97162.31;;;17.82;74.44
49040;BME280;36811;49.732;13.402;2022-09-13T19:39:05;97167.53;;;17.87;73.85
49040;BME280;36811;49.732;13.402;2022-09-13T19:41:32;97162.03;;;17.83;74.00
49040;BME280;36811;49.732;13.402;2022-09-13T19:43:59;97167.69;;;17.82;73.98
49040;BME280;36811;49.732;13.402;2022-09-13T19:46:29;97154.72;;;17.84;73.75
49040;BME280;36811;49.732;13.402;2022-09-13T19:48:56;97158.53;;;17.83;73.12
49040;BME280;36811;49.732;13.402;2022-09-13T19:51:29;97149.03;;;17.76;74.08
49040;BME280;36811;49.732;13.402;2022-09-13T19:53:57;97153.78;;;17.80;73.87
49040;BME280;36811;49.732;13.402;2022-09-13T19:56:29;97157.72;;;17.82;73.99
49040;BME280;36811;49.732;13.402;2022-09-13T19:58:57;97150.16;;;17.75;74.16
49040;BME280;36811;49.732;13.402;2022-09-13T20:01:27;97149.97;;;17.72;74.19
49040;BME280;36811;49.732;13.402;2022-09-13T20:03:55;97149.97;;;17.72;73.57
49040;BME280;36811;49.732;13.402;2022-09-13T20:06:23;97147.63;;;17.70;74.44
49040;BME280;36811;49.732;13.402;2022-09-13T20:08:50;97145.69;;;17.71;74.64
49040;BME280;36811;49.732;13.402;2022-09-13T20:11:17;97151.25;;;17.83;74.37
49040;BME280;36811;49.732;13.402;2022-09-13T20:13:44;97149.66;;;17.91;74.43
49040;BME280;36811;49.732;13.402;2022-09-13T20:16:19;97143.97;;;17.92;74.27
49040;BME280;36811;49.732;13.402;2022-09-13T20:18:46;97140.00;;;17.90;74.42
49040;BME280;36811;49.732;13.402;2022-09-13T20:21:12;97147.59;;;17.96;74.32
49040;BME280;36811;49.732;13.402;2022-09-13T20:23:39;97148.22;;;18.02;74.21
49040;BME280;36811;49.732;13.402;2022-09-13T20:26:17;97146.16;;;18.07;73.39
49040;BME280;36811;49.732;13.402;2022-09-13T20:28:44;97134.59;;;18.07;73.24
49040;BME280;36811;49.732;13.402;2022-09-13T20:31:11;97139.69;;;18.08;73.43
49040;BME280;36811;49.732;13.402;2022-09-13T20:33:37;97143.47;;;18.07;73.39
49040;BME280;36811;49.732;13.402;2022-09-13T20:36:06;97140.31;;;18.14;73.29
49040;BME280;36811;49.732;13.402;2022-09-13T20:38:36;97143.13;;;18.17;73.32
49040;BME280;36811;49.732;13.402;2022-09-13T20:41:07;97142.34;;;18.17;73.37
49040;BME280;36811;49.732;13.402;2022-09-13T20:43:33;97129.72;;;18.09;73.67
49040;BME280;36811;49.732;13.402;2022-09-13T20:46:00;97139.22;;;18.06;74.14
49040;BME280;36811;49.732;13.402;2022-09-13T20:48:27;97136.66;;;18.18;73.93
49040;BME280;36811;49.732;13.402;2022-09-13T20:51:01;97146.97;;;18.16;73.88
49040;BME280;36811;49.732;13.402;2022-09-13T20:53:28;97147.13;;;18.11;73.85
49040;BME280;36811;49.732;13.402;2022-09-13T20:55:54;97138.22;;;18.19;73.66
49040;BME280;36811;49.732;13.402;2022-09-13T20:58:21;97148.66;;;18.29;73.03
49040;BME280;36811;49.732;13.402;2022-09-13T21:00:47;97143.59;;;18.36;73.24
49040;BME280;36811;49.732;13.402;2022-09-13T21:03:14;97141.81;;;18.40;73.33
49040;BME280;36811;49.732;13.402;2022-09-13T21:05:41;97130.72;;;18.42;72.69
49040;BME280;36811;49.732;13.402;2022-09-13T21:08:13;97133.41;;;18.42;72.73
49040;BME280;36811;49.732;13.402;2022-09-13T21:11:00;97136.28;;;18.37;72.83
49040;BME280;36811;49.732;13.402;2022-09-13T21:13:36;97130.94;;;18.28;73.23
49040;BME280;36811;49.732;13.402;2022-09-13T21:16:04;97135.97;;;18.30;73.75
49040;BME280;36811;49.732;13.402;2022-09-13T21:18:31;97132.38;;;18.17;74.04
49040;BME280;36811;49.732;13.402;2022-09-13T21:20:58;97133.69;;;17.86;75.34
49040;BME280;36811;49.732;13.402;2022-09-13T21:23:25;97132.75;;;17.73;75.84
49040;BME280;36811;49.732;13.402;2022-09-13T21:25:51;97145.38;;;17.81;76.26
49040;BME280;36811;49.732;13.402;2022-09-13T21:28:18;97142.84;;;17.85;75.85
49040;BME280;36811;49.732;13.402;2022-09-13T21:31:03;97146.19;;;17.82;75.78
49040;BME280;36811;49.732;13.402;2022-09-13T21:33:29;97146.81;;;17.78;75.77
49040;BME280;36811;49.732;13.402;2022-09-13T21:35:59;97142.88;;;17.67;75.81
49040;BME280;36811;49.732;13.402;2022-09-13T21:38:27;97140.47;;;17.66;76.37
49040;BME280;36811;49.732;13.402;2022-09-13T21:40:55;97149.50;;;17.61;76.68
49040;BME280;36811;49.732;13.402;2022-09-13T21:43:22;97140.34;;;17.62;76.14
49040;BME280;36811;49.732;13.402;2022-09-13T21:45:48;97141.28;;;17.66;76.24
49040;BME280;36811;49.732;13.402;2022-09-13T21:48:13;97147.63;;;17.70;75.72
49040;BME280;36811;49.732;13.402;2022-09-13T21:50:39;97142.72;;;17.72;75.46
49040;BME280;36811;49.732;13.402;2022-09-13T21:53:05;97146.66;;;17.75;75.27
49040;BME280;36811;49.732;13.402;2022-09-13T21:55:34;97144.13;;;17.78;75.59
49040;BME280;36811;49.732;13.402;2022-09-13T21:58:06;97145.69;;;17.71;75.75
49040;BME280;36811;49.732;13.402;2022-09-13T22:00:33;97143.34;;;17.69;75.71
49040;BME280;36811;49.732;13.402;2022-09-13T22:03:03;97148.38;;;17.71;75.86
49040;BME280;36811;49.732;13.402;2022-09-13T22:05:28;97150.78;;;17.72;76.22
49040;BME280;36811;49.732;13.402;2022-09-13T22:07:54;97145.56;;;17.67;76.40
49040;BME280;36811;49.732;13.402;2022-09-13T22:10:20;97152.03;;;17.66;77.41
49040;BME280;36811;49.732;13.402;2022-09-13T22:12:45;97155.84;;;17.65;76.78
49040;BME280;36811;49.732;13.402;2022-09-13T22:15:11;97150.09;;;17.50;77.58
49040;BME280;36811;49.732;13.402;2022-09-13T22:17:37;97147.25;;;17.46;78.18
49040;BME280;36811;49.732;13.402;2022-09-13T22:20:03;97153.09;;;17.48;78.25
49040;BME280;36811;49.732;13.402;2022-09-13T22:22:28;97158.03;;;17.55;78.56
49040;BME280;36811;49.732;13.402;2022-09-13T22:24:54;97156.75;;;17.61;77.43
49040;BME280;36811;49.732;13.402;2022-09-13T22:27:19;97155.34;;;17.63;78.34
49040;BME280;36811;49.732;13.402;2022-09-13T22:29:45;97163.44;;;17.72;77.54
49040;BME280;36811;49.732;13.402;2022-09-13T22:32:11;97160.28;;;17.70;77.98
49040;BME280;36811;49.732;13.402;2022-09-13T22:34:37;97153.47;;;17.72;77.20
49040;BME280;36811;49.732;13.402;2022-09-13T22:37:03;97143.16;;;17.66;77.72
49040;BME280;36811;49.732;13.402;2022-09-13T22:39:28;97152.50;;;17.68;77.61
49040;BME280;36811;49.732;13.402;2022-09-13T22:41:54;97145.56;;;17.67;78.64
49040;BME280;36811;49.732;13.402;2022-09-13T22:44:19;97139.72;;;17.65;78.31
49040;BME280;36811;49.732;13.402;2022-09-13T22:46:46;97135.41;;;17.64;77.63
49040;BME280;36811;49.732;13.402;2022-09-13T22:49:14;97125.28;;;17.61;77.71
49040;BME280;36811;49.732;13.402;2022-09-13T22:51:41;97131.47;;;17.62;77.31
49040;BME280;36811;49.732;13.402;2022-09-13T22:54:09;97136.66;;;17.58;77.20
49040;BME280;36811;49.732;13.402;2022-09-13T22:56:36;97136.06;;;17.53;77.57
49040;BME280;36811;49.732;13.402;2022-09-13T22:59:09;97132.06;;;17.50;78.33
49040;BME280;36811;49.732;13.402;2022-09-13T23:01:36;97136.00;;;17.44;77.57
49040;BME280;36811;49.732;13.402;2022-09-13T23:04:03;97139.34;;;17.50;77.69
49040;BME280;36811;49.732;13.402;2022-09-13T23:06:30;97141.91;;;17.55;77.15
49040;BME280;36811;49.732;13.402;2022-09-13T23:08:58;97132.88;;;17.59;77.16
49040;BME280;36811;49.732;13.402;2022-09-13T23:11:30;97132.72;;;17.56;77.86
49040;BME280;36811;49.732;13.402;2022-09-13T23:13:59;97127.78;;;17.49;77.48
49040;BME280;36811;49.732;13.402;2022-09-13T23:16:28;97120.97;;;17.43;77.95
49040;BME280;36811;49.732;13.402;2022-09-13T23:18:55;97125.25;;;17.44;78.31
49040;BME280;36811;49.732;13.402;2022-09-13T23:21:25;97120.84;;;17.40;77.85
49040;BME280;36811;49.732;13.402;2022-09-13T23:23:52;97111.78;;;17.36;78.25
49040;BME280;36811;49.732;13.402;2022-09-13T23:26:20;97117.34;;;17.39;77.88
49040;BME280;36811;49.732;13.402;2022-09-13T23:28:52;97110.53;;;17.42;78.36
49040;BME280;36811;49.732;13.402;2022-09-13T23:31:21;97107.22;;;17.36;78.28
49040;BME280;36811;49.732;13.402;2022-09-13T23:33:49;97119.88;;;17.44;77.98
49040;BME280;36811;49.732;13.402;2022-09-13T23:36:18;97111.53;;;17.54;77.99
49040;BME280;36811;49.732;13.402;2022-09-13T23:38:48;97103.59;;;17.49;78.27
49040;BME280;36811;49.732;13.402;2022-09-13T23:41:14;97102.81;;;17.40;78.09
49040;BME280;36811;49.732;13.402;2022-09-13T23:43:41;97110.06;;;17.48;78.50
49040;BME280;36811;49.732;13.402;2022-09-13T23:46:07;97110.59;;;17.59;77.66
49040;BME280;36811;49.732;13.402;2022-09-13T23:48:33;97110.91;;;17.57;77.68
49040;BME280;36811;49.732;13.402;2022-09-13T23:51:05;97117.56;;;17.60;77.51
49040;BME280;36811;49.732;13.402;2022-09-13T23:53:32;97111.03;;;17.61;77.32
49040;BME280;36811;49.732;13.402;2022-09-13T23:55:58;97103.78;;;17.61;77.13
49040;BME280;36811;49.732;13.402;2022-09-13T23:58:24;97093.34;;;17.60;77.27
